sensor_id;sensor_type;location;lat;lon;timestamp;temperature;humidity
67748;HTU21D;54543;50.712;6.070;2023-05-10T00:01:07;12.72;95.10
67748;HTU21D;54543;50.712;6.070;2023-05-10T00:03:32;12.71;95.30
67748;HTU21D;54543;50.712;6.070;2023-05-10T00:05:58;12.72;95.36
67748;HTU21D;54543;50.712;6.070;2023-05-10T00:08:24;12.72;95.27
67748;HTU21D;54543;50.712;6.070;2023-05-10T00:10:49;12.70;95.36
67748;HTU21D;54543;50.712;6.070;2023-05-10T00:13:15;12.72;95.22
67748;HTU21D;54543;50.712;6.070;2023-05-10T00:15:41;12.71;95.14
67748;HTU21D;54543;50.712;6.070;2023-05-10T00:18:06;12.70;95.58
67748;HTU21D;54543;50.712;6.070;2023-05-10T00:20:32;12.72;95.50
67748;HTU21D;54543;50.712;6.070;2023-05-10T00:22:57;12.72;95.26
67748;HTU21D;54543;50.712;6.070;2023-05-10T00:25:23;12.70;95.25
67748;HTU21D;54543;50.712;6.070;2023-05-10T00:27:48;12.71;95.68
67748;HTU21D;54543;50.712;6.070;2023-05-10T00:30:14;12.69;95.66
67748;HTU21D;54543;50.712;6.070;2023-05-10T00:32:40;12.71;95.30
67748;HTU21D;54543;50.712;6.070;2023-05-10T00:35:06;12.67;95.58
67748;HTU21D;54543;50.712;6.070;2023-05-10T00:37:32;12.71;95.41
67748;HTU21D;54543;50.712;6.070;2023-05-10T00:39:57;12.71;95.29
67748;HTU21D;54543;50.712;6.070;2023-05-10T00:42:23;12.71;95.34
67748;HTU21D;54543;50.712;6.070;2023-05-10T00:44:48;12.67;95.52
67748;HTU21D;54543;50.712;6.070;2023-05-10T00:47:15;12.70;95.84
67748;HTU21D;54543;50.712;6.070;2023-05-10T00:49:41;12.70;95.53
67748;HTU21D;54543;50.712;6.070;2023-05-10T00:52:08;12.66;95.78
67748;HTU21D;54543;50.712;6.070;2023-05-10T00:54:33;12.63;95.97
67748;HTU21D;54543;50.712;6.070;2023-05-10T00:56:59;12.58;96.46
67748;HTU21D;54543;50.712;6.070;2023-05-10T00:59:25;12.55;95.72
67748;HTU21D;54543;50.712;6.070;2023-05-10T01:01:51;12.52;95.78
67748;HTU21D;54543;50.712;6.070;2023-05-10T01:04:17;12.52;95.73
67748;HTU21D;54543;50.712;6.070;2023-05-10T01:06:45;12.51;95.53
67748;HTU21D;54543;50.712;6.070;2023-05-10T01:09:10;12.49;95.59
67748;HTU21D;54543;50.712;6.070;2023-05-10T01:11:38;12.50;96.01
67748;HTU21D;54543;50.712;6.070;2023-05-10T01:14:05;12.50;95.65
67748;HTU21D;54543;50.712;6.070;2023-05-10T01:16:39;12.49;95.94
67748;HTU21D;54543;50.712;6.070;2023-05-10T01:19:12;12.51;96.38
67748;HTU21D;54543;50.712;6.070;2023-05-10T01:27:20;12.51;96.34
67748;HTU21D;54543;50.712;6.070;2023-05-10T01:33:18;12.50;96.84
67748;HTU21D;54543;50.712;6.070;2023-05-10T01:35:55;12.52;96.81
67748;HTU21D;54543;50.712;6.070;2023-05-10T01:38:50;12.53;96.81
67748;HTU21D;54543;50.712;6.070;2023-05-10T01:41:30;12.52;96.72
67748;HTU21D;54543;50.712;6.070;2023-05-10T01:44:15;12.52;96.56
67748;HTU21D;54543;50.712;6.070;2023-05-10T01:46:42;12.50;96.43
67748;HTU21D;54543;50.712;6.070;2023-05-10T01:49:14;12.52;96.61
67748;HTU21D;54543;50.712;6.070;2023-05-10T01:51:47;12.51;96.13
67748;HTU21D;54543;50.712;6.070;2023-05-10T01:54:17;12.50;96.31
67748;HTU21D;54543;50.712;6.070;2023-05-10T01:56:47;12.50;96.24
67748;HTU21D;54543;50.712;6.070;2023-05-10T01:59:18;12.50;96.43
67748;HTU21D;54543;50.712;6.070;2023-05-10T02:01:45;12.49;96.70
67748;HTU21D;54543;50.712;6.070;2023-05-10T02:04:14;12.50;96.86
67748;HTU21D;54543;50.712;6.070;2023-05-10T02:06:41;12.52;96.77
67748;HTU21D;54543;50.712;6.070;2023-05-10T02:09:09;12.53;96.42
67748;HTU21D;54543;50.712;6.070;2023-05-10T02:11:38;12.50;96.13
67748;HTU21D;54543;50.712;6.070;2023-05-10T02:14:07;12.48;96.28
67748;HTU21D;54543;50.712;6.070;2023-05-10T02:16:35;12.47;96.16
67748;HTU21D;54543;50.712;6.070;2023-05-10T02:19:02;12.45;96.43
67748;HTU21D;54543;50.712;6.070;2023-05-10T02:21:29;12.45;96.20
67748;HTU21D;54543;50.712;6.070;2023-05-10T02:23:57;12.42;96.53
67748;HTU21D;54543;50.712;6.070;2023-05-10T02:26:24;12.42;96.65
67748;HTU21D;54543;50.712;6.070;2023-05-10T02:28:51;12.43;96.74
67748;HTU21D;54543;50.712;6.070;2023-05-10T02:31:18;12.42;96.36
67748;HTU21D;54543;50.712;6.070;2023-05-10T02:33:45;12.41;96.33
67748;HTU21D;54543;50.712;6.070;2023-05-10T02:36:12;12.40;96.07
67748;HTU21D;54543;50.712;6.070;2023-05-10T02:38:38;12.35;96.36
67748;HTU21D;54543;50.712;6.070;2023-05-10T02:41:05;12.37;96.16
67748;HTU21D;54543;50.712;6.070;2023-05-10T02:43:33;12.35;96.49
67748;HTU21D;54543;50.712;6.070;2023-05-10T02:45:59;12.35;96.63
67748;HTU21D;54543;50.712;6.070;2023-05-10T02:48:25;12.35;96.54
67748;HTU21D;54543;50.712;6.070;2023-05-10T02:50:51;12.35;96.46
67748;HTU21D;54543;50.712;6.070;2023-05-10T02:53:25;12.37;96.59
67748;HTU21D;54543;50.712;6.070;2023-05-10T02:55:58;12.38;96.52
67748;HTU21D;54543;50.712;6.070;2023-05-10T02:58:25;12.38;96.20
67748;HTU21D;54543;50.712;6.070;2023-05-10T03:00:52;12.38;96.30
67748;HTU21D;54543;50.712;6.070;2023-05-10T03:03:19;12.37;96.33
67748;HTU21D;54543;50.712;6.070;2023-05-10T03:05:45;12.36;96.43
67748;HTU21D;54543;50.712;6.070;2023-05-10T03:08:10;12.35;96.49
67748;HTU21D;54543;50.712;6.070;2023-05-10T03:10:43;12.37;96.44
67748;HTU21D;54543;50.712;6.070;2023-05-10T03:13:31;12.37;96.42
67748;HTU21D;54543;50.712;6.070;2023-05-10T03:18:38;12.34;96.47
67748;HTU21D;54543;50.712;6.070;2023-05-10T03:21:07;12.31;96.52
67748;HTU21D;54543;50.712;6.070;2023-05-10T03:23:50;12.33;96.83
67748;HTU21D;54543;50.712;6.070;2023-05-10T03:26:27;12.28;96.23
67748;HTU21D;54543;50.712;6.070;2023-05-10T03:28:54;12.22;96.33
67748;HTU21D;54543;50.712;6.070;2023-05-10T03:31:20;12.21;96.74
67748;HTU21D;54543;50.712;6.070;2023-05-10T03:33:50;12.21;96.48
67748;HTU21D;54543;50.712;6.070;2023-05-10T03:36:16;12.16;96.40
67748;HTU21D;54543;50.712;6.070;2023-05-10T03:38:42;12.13;96.52
67748;HTU21D;54543;50.712;6.070;2023-05-10T03:41:08;12.12;96.37
67748;HTU21D;54543;50.712;6.070;2023-05-10T03:43:33;12.10;96.57
67748;HTU21D;54543;50.712;6.070;2023-05-10T03:46:02;12.10;96.36
67748;HTU21D;54543;50.712;6.070;2023-05-10T03:48:27;12.07;96.47
67748;HTU21D;54543;50.712;6.070;2023-05-10T03:50:53;12.08;96.63
67748;HTU21D;54543;50.712;6.070;2023-05-10T03:53:18;12.07;96.59
67748;HTU21D;54543;50.712;6.070;2023-05-10T03:55:44;12.08;96.76
67748;HTU21D;54543;50.712;6.070;2023-05-10T03:58:13;12.08;97.16
67748;HTU21D;54543;50.712;6.070;2023-05-10T04:00:38;12.12;96.87
67748;HTU21D;54543;50.712;6.070;2023-05-10T04:03:09;12.12;96.71
67748;HTU21D;54543;50.712;6.070;2023-05-10T04:05:35;12.08;96.78
67748;HTU21D;54543;50.712;6.070;2023-05-10T04:08:01;12.08;96.85
67748;HTU21D;54543;50.712;6.070;2023-05-10T04:10:27;12.13;97.42
67748;HTU21D;54543;50.712;6.070;2023-05-10T04:12:53;12.18;97.29
67748;HTU21D;54543;50.712;6.070;2023-05-10T04:15:19;12.21;97.10
67748;HTU21D;54543;50.712;6.070;2023-05-10T04:17:44;12.26;96.91
67748;HTU21D;54543;50.712;6.070;2023-05-10T04:20:10;12.27;97.16
67748;HTU21D;54543;50.712;6.070;2023-05-10T04:22:36;12.32;97.00
67748;HTU21D;54543;50.712;6.070;2023-05-10T04:25:02;12.35;97.12
67748;HTU21D;54543;50.712;6.070;2023-05-10T04:27:27;12.40;96.78
67748;HTU21D;54543;50.712;6.070;2023-05-10T04:29:53;12.37;96.39
67748;HTU21D;54543;50.712;6.070;2023-05-10T04:32:20;12.37;96.33
67748;HTU21D;54543;50.712;6.070;2023-05-10T04:34:46;12.36;96.37
67748;HTU21D;54543;50.712;6.070;2023-05-10T04:37:11;12.38;96.49
67748;HTU21D;54543;50.712;6.070;2023-05-10T04:39:37;12.41;96.38
67748;HTU21D;54543;50.712;6.070;2023-05-10T04:42:03;12.42;96.10
67748;HTU21D;54543;50.712;6.070;2023-05-10T04:44:34;12.43;96.29
67748;HTU21D;54543;50.712;6.070;2023-05-10T04:47:00;12.42;96.63
67748;HTU21D;54543;50.712;6.070;2023-05-10T04:49:33;0.00;96.49
67748;HTU21D;54543;50.712;6.070;2023-05-10T04:52:01;12.47;96.51
67748;HTU21D;54543;50.712;6.070;2023-05-10T04:54:27;12.47;96.14
67748;HTU21D;54543;50.712;6.070;2023-05-10T04:56:54;12.44;96.04
67748;HTU21D;54543;50.712;6.070;2023-05-10T04:59:19;12.44;96.14
67748;HTU21D;54543;50.712;6.070;2023-05-10T05:01:45;12.40;95.91
67748;HTU21D;54543;50.712;6.070;2023-05-10T05:04:10;12.37;95.91
67748;HTU21D;54543;50.712;6.070;2023-05-10T05:06:36;12.35;96.05
67748;HTU21D;54543;50.712;6.070;2023-05-10T05:09:01;12.38;96.38
67748;HTU21D;54543;50.712;6.070;2023-05-10T05:11:27;12.41;96.94
67748;HTU21D;54543;50.712;6.070;2023-05-10T05:13:53;12.47;96.82
67748;HTU21D;54543;50.712;6.070;2023-05-10T05:16:18;12.47;96.71
67748;HTU21D;54543;50.712;6.070;2023-05-10T05:18:44;12.49;96.30
67748;HTU21D;54543;50.712;6.070;2023-05-10T05:21:16;12.47;96.10
67748;HTU21D;54543;50.712;6.070;2023-05-10T05:23:43;12.44;96.36
67748;HTU21D;54543;50.712;6.070;2023-05-10T05:26:09;12.43;96.33
67748;HTU21D;54543;50.712;6.070;2023-05-10T05:28:36;12.45;96.31
67748;HTU21D;54543;50.712;6.070;2023-05-10T05:31:06;12.45;96.23
67748;HTU21D;54543;50.712;6.070;2023-05-10T05:33:33;12.40;96.43
67748;HTU21D;54543;50.712;6.070;2023-05-10T05:36:03;12.41;96.56
67748;HTU21D;54543;50.712;6.070;2023-05-10T05:38:28;12.43;96.51
67748;HTU21D;54543;50.712;6.070;2023-05-10T05:40:54;12.41;96.55
67748;HTU21D;54543;50.712;6.070;2023-05-10T05:43:20;12.42;96.55
67748;HTU21D;54543;50.712;6.070;2023-05-10T05:45:45;12.38;96.49
67748;HTU21D;54543;50.712;6.070;2023-05-10T05:48:11;12.35;96.85
67748;HTU21D;54543;50.712;6.070;2023-05-10T05:50:37;12.36;97.21
67748;HTU21D;54543;50.712;6.070;2023-05-10T05:53:02;12.37;97.03
67748;HTU21D;54543;50.712;6.070;2023-05-10T05:55:28;12.37;97.03
67748;HTU21D;54543;50.712;6.070;2023-05-10T05:57:54;12.41;97.20
67748;HTU21D;54543;50.712;6.070;2023-05-10T06:00:20;12.44;97.38
67748;HTU21D;54543;50.712;6.070;2023-05-10T06:02:46;12.48;97.61
67748;HTU21D;54543;50.712;6.070;2023-05-10T06:05:12;12.56;97.63
67748;HTU21D;54543;50.712;6.070;2023-05-10T06:07:39;12.60;97.59
67748;HTU21D;54543;50.712;6.070;2023-05-10T06:10:08;12.66;97.45
67748;HTU21D;54543;50.712;6.070;2023-05-10T06:12:34;12.67;97.22
67748;HTU21D;54543;50.712;6.070;2023-05-10T06:14:59;12.73;97.32
67748;HTU21D;54543;50.712;6.070;2023-05-10T06:17:26;12.80;97.22
67748;HTU21D;54543;50.712;6.070;2023-05-10T06:19:52;12.82;96.60
67748;HTU21D;54543;50.712;6.070;2023-05-10T06:22:18;12.87;96.65
67748;HTU21D;54543;50.712;6.070;2023-05-10T06:24:43;12.88;95.19
67748;HTU21D;54543;50.712;6.070;2023-05-10T06:27:09;12.79;96.95
67748;HTU21D;54543;50.712;6.070;2023-05-10T06:29:35;12.71;97.06
67748;HTU21D;54543;50.712;6.070;2023-05-10T06:32:01;12.67;96.34
67748;HTU21D;54543;50.712;6.070;2023-05-10T06:34:26;12.59;96.29
67748;HTU21D;54543;50.712;6.070;2023-05-10T06:36:52;12.48;96.36
67748;HTU21D;54543;50.712;6.070;2023-05-10T06:39:18;12.41;96.78
67748;HTU21D;54543;50.712;6.070;2023-05-10T06:41:43;12.36;96.58
67748;HTU21D;54543;50.712;6.070;2023-05-10T06:44:09;12.34;96.87
67748;HTU21D;54543;50.712;6.070;2023-05-10T06:46:35;12.36;96.93
67748;HTU21D;54543;50.712;6.070;2023-05-10T06:49:00;12.42;96.71
67748;HTU21D;54543;50.712;6.070;2023-05-10T06:51:26;12.42;96.26
67748;HTU21D;54543;50.712;6.070;2023-05-10T06:53:51;12.40;95.91
67748;HTU21D;54543;50.712;6.070;2023-05-10T06:56:17;12.37;96.12
67748;HTU21D;54543;50.712;6.070;2023-05-10T06:58:43;12.35;96.23
67748;HTU21D;54543;50.712;6.070;2023-05-10T07:01:08;12.32;95.35
67748;HTU21D;54543;50.712;6.070;2023-05-10T07:03:34;12.27;96.49
67748;HTU21D;54543;50.712;6.070;2023-05-10T07:06:01;12.26;96.91
67748;HTU21D;54543;50.712;6.070;2023-05-10T07:08:29;12.25;97.24
67748;HTU21D;54543;50.712;6.070;2023-05-10T07:11:02;12.22;97.42
67748;HTU21D;54543;50.712;6.070;2023-05-10T07:13:30;12.17;97.79
67748;HTU21D;54543;50.712;6.070;2023-05-10T07:15:55;12.17;97.73
67748;HTU21D;54543;50.712;6.070;2023-05-10T07:18:21;12.19;97.94
67748;HTU21D;54543;50.712;6.070;2023-05-10T07:20:46;12.25;98.33
67748;HTU21D;54543;50.712;6.070;2023-05-10T07:23:12;12.26;98.90
67748;HTU21D;54543;50.712;6.070;2023-05-10T07:25:38;12.27;98.60
67748;HTU21D;54543;50.712;6.070;2023-05-10T07:28:03;12.30;99.14
67748;HTU21D;54543;50.712;6.070;2023-05-10T07:30:29;12.32;98.66
67748;HTU21D;54543;50.712;6.070;2023-05-10T07:32:56;12.32;98.68
67748;HTU21D;54543;50.712;6.070;2023-05-10T07:35:21;12.33;98.84
67748;HTU21D;54543;50.712;6.070;2023-05-10T07:37:47;12.35;98.90
67748;HTU21D;54543;50.712;6.070;2023-05-10T07:40:13;12.37;99.32
67748;HTU21D;54543;50.712;6.070;2023-05-10T07:42:38;12.38;98.90
67748;HTU21D;54543;50.712;6.070;2023-05-10T07:45:04;12.32;98.81
67748;HTU21D;54543;50.712;6.070;2023-05-10T07:47:30;12.36;99.19
67748;HTU21D;54543;50.712;6.070;2023-05-10T07:49:56;12.36;98.32
67748;HTU21D;54543;50.712;6.070;2023-05-10T07:52:21;12.32;98.38
67748;HTU21D;54543;50.712;6.070;2023-05-10T07:54:47;12.27;98.22
67748;HTU21D;54543;50.712;6.070;2023-05-10T07:57:13;12.23;98.49
67748;HTU21D;54543;50.712;6.070;2023-05-10T07:59:40;12.20;98.17
67748;HTU21D;54543;50.712;6.070;2023-05-10T08:02:06;12.23;99.07
67748;HTU21D;54543;50.712;6.070;2023-05-10T08:04:32;12.25;98.44
67748;HTU21D;54543;50.712;6.070;2023-05-10T08:06:57;12.23;98.93
67748;HTU21D;54543;50.712;6.070;2023-05-10T08:09:23;12.20;98.12
67748;HTU21D;54543;50.712;6.070;2023-05-10T08:11:49;12.12;97.70
67748;HTU21D;54543;50.712;6.070;2023-05-10T08:14:16;12.10;98.13
67748;HTU21D;54543;50.712;6.070;2023-05-10T08:16:41;12.15;98.86
67748;HTU21D;54543;50.712;6.070;2023-05-10T08:19:07;12.18;98.17
67748;HTU21D;54543;50.712;6.070;2023-05-10T08:21:33;12.20;98.40
67748;HTU21D;54543;50.712;6.070;2023-05-10T08:23:58;12.20;97.99
67748;HTU21D;54543;50.712;6.070;2023-05-10T08:26:24;12.22;97.76
67748;HTU21D;54543;50.712;6.070;2023-05-10T08:28:50;12.15;97.76
67748;HTU21D;54543;50.712;6.070;2023-05-10T08:31:15;12.16;97.91
67748;HTU21D;54543;50.712;6.070;2023-05-10T08:33:41;12.12;97.81
67748;HTU21D;54543;50.712;6.070;2023-05-10T08:36:07;12.11;98.47
67748;HTU21D;54543;50.712;6.070;2023-05-10T08:38:32;12.14;98.22
67748;HTU21D;54543;50.712;6.070;2023-05-10T08:40:58;12.11;97.94
67748;HTU21D;54543;50.712;6.070;2023-05-10T08:43:28;12.13;97.88
67748;HTU21D;54543;50.712;6.070;2023-05-10T08:46:00;12.12;97.80
67748;HTU21D;54543;50.712;6.070;2023-05-10T08:48:29;12.12;96.70
67748;HTU21D;54543;50.712;6.070;2023-05-10T08:50:58;12.08;96.72
67748;HTU21D;54543;50.712;6.070;2023-05-10T08:53:24;12.03;96.76
67748;HTU21D;54543;50.712;6.070;2023-05-10T08:55:52;12.02;97.20
67748;HTU21D;54543;50.712;6.070;2023-05-10T08:58:19;12.01;97.63
67748;HTU21D;54543;50.712;6.070;2023-05-10T09:00:45;12.00;96.78
67748;HTU21D;54543;50.712;6.070;2023-05-10T09:03:12;12.02;97.57
67748;HTU21D;54543;50.712;6.070;2023-05-10T09:05:38;12.03;97.23
67748;HTU21D;54543;50.712;6.070;2023-05-10T09:08:04;12.08;97.45
67748;HTU21D;54543;50.712;6.070;2023-05-10T09:10:30;12.05;97.29
67748;HTU21D;54543;50.712;6.070;2023-05-10T09:12:57;12.02;97.40
67748;HTU21D;54543;50.712;6.070;2023-05-10T09:15:23;11.98;97.65
67748;HTU21D;54543;50.712;6.070;2023-05-10T09:17:49;11.98;97.61
67748;HTU21D;54543;50.712;6.070;2023-05-10T09:20:15;12.01;97.24
67748;HTU21D;54543;50.712;6.070;2023-05-10T09:22:42;11.97;96.77
67748;HTU21D;54543;50.712;6.070;2023-05-10T09:25:15;11.98;96.96
67748;HTU21D;54543;50.712;6.070;2023-05-10T09:27:44;12.01;97.07
67748;HTU21D;54543;50.712;6.070;2023-05-10T09:30:15;12.05;97.06
67748;HTU21D;54543;50.712;6.070;2023-05-10T09:32:45;12.05;96.95
67748;HTU21D;54543;50.712;6.070;2023-05-10T09:35:15;12.08;97.23
67748;HTU21D;54543;50.712;6.070;2023-05-10T09:37:45;12.12;96.51
67748;HTU21D;54543;50.712;6.070;2023-05-10T09:40:17;12.14;96.68
67748;HTU21D;54543;50.712;6.070;2023-05-10T09:43:06;12.26;97.38
67748;HTU21D;54543;50.712;6.070;2023-05-10T09:45:34;12.35;96.80
67748;HTU21D;54543;50.712;6.070;2023-05-10T09:48:01;12.42;95.74
67748;HTU21D;54543;50.712;6.070;2023-05-10T09:50:28;12.41;95.60
67748;HTU21D;54543;50.712;6.070;2023-05-10T09:52:55;12.49;95.79
67748;HTU21D;54543;50.712;6.070;2023-05-10T09:55:24;12.62;95.75
67748;HTU21D;54543;50.712;6.070;2023-05-10T09:58:01;12.72;94.49
67748;HTU21D;54543;50.712;6.070;2023-05-10T10:00:28;12.73;94.51
67748;HTU21D;54543;50.712;6.070;2023-05-10T10:03:00;12.71;94.35
67748;HTU21D;54543;50.712;6.070;2023-05-10T10:05:29;12.65;94.49
67748;HTU21D;54543;50.712;6.070;2023-05-10T10:07:56;12.63;94.92
67748;HTU21D;54543;50.712;6.070;2023-05-10T10:10:23;12.64;95.47
67748;HTU21D;54543;50.712;6.070;2023-05-10T10:12:49;12.63;95.02
67748;HTU21D;54543;50.712;6.070;2023-05-10T10:15:15;12.67;95.29
67748;HTU21D;54543;50.712;6.070;2023-05-10T10:17:43;12.74;95.29
67748;HTU21D;54543;50.712;6.070;2023-05-10T10:20:09;12.86;95.18
67748;HTU21D;54543;50.712;6.070;2023-05-10T10:22:37;13.01;95.41
67748;HTU21D;54543;50.712;6.070;2023-05-10T10:25:04;13.12;95.40
67748;HTU21D;54543;50.712;6.070;2023-05-10T10:35:33;13.10;93.31
67748;HTU21D;54543;50.712;6.070;2023-05-10T10:38:00;13.11;93.14
67748;HTU21D;54543;50.712;6.070;2023-05-10T10:40:33;13.11;93.17
67748;HTU21D;54543;50.712;6.070;2023-05-10T10:43:25;13.21;93.45
67748;HTU21D;54543;50.712;6.070;2023-05-10T10:46:11;13.32;92.24
67748;HTU21D;54543;50.712;6.070;2023-05-10T10:49:08;13.31;92.28
67748;HTU21D;54543;50.712;6.070;2023-05-10T10:51:38;13.46;92.87
67748;HTU21D;54543;50.712;6.070;2023-05-10T10:54:10;13.55;91.72
67748;HTU21D;54543;50.712;6.070;2023-05-10T10:56:36;13.56;91.84
67748;HTU21D;54543;50.712;6.070;2023-05-10T10:59:01;13.58;91.51
67748;HTU21D;54543;50.712;6.070;2023-05-10T11:01:33;13.46;90.29
67748;HTU21D;54543;50.712;6.070;2023-05-10T11:06:31;13.25;90.80
67748;HTU21D;54543;50.712;6.070;2023-05-10T11:08:57;13.15;91.27
67748;HTU21D;54543;50.712;6.070;2023-05-10T11:11:23;13.10;92.15
67748;HTU21D;54543;50.712;6.070;2023-05-10T11:13:49;13.16;92.37
67748;HTU21D;54543;50.712;6.070;2023-05-10T11:19:03;13.29;91.60
67748;HTU21D;54543;50.712;6.070;2023-05-10T11:21:33;13.38;91.73
67748;HTU21D;54543;50.712;6.070;2023-05-10T11:24:00;13.47;90.61
67748;HTU21D;54543;50.712;6.070;2023-05-10T11:26:35;13.60;90.91
67748;HTU21D;54543;50.712;6.070;2023-05-10T11:29:01;13.69;89.97
67748;HTU21D;54543;50.712;6.070;2023-05-10T11:31:28;13.71;90.34
67748;HTU21D;54543;50.712;6.070;2023-05-10T11:33:56;13.76;88.91
67748;HTU21D;54543;50.712;6.070;2023-05-10T11:36:26;13.61;89.34
67748;HTU21D;54543;50.712;6.070;2023-05-10T11:38:52;13.50;90.02
67748;HTU21D;54543;50.712;6.070;2023-05-10T11:41:19;13.59;90.56
67748;HTU21D;54543;50.712;6.070;2023-05-10T11:43:52;13.64;89.51
67748;HTU21D;54543;50.712;6.070;2023-05-10T11:46:20;13.68;90.05
67748;HTU21D;54543;50.712;6.070;2023-05-10T11:48:49;13.79;88.62
67748;HTU21D;54543;50.712;6.070;2023-05-10T11:51:19;13.77;90.14
67748;HTU21D;54543;50.712;6.070;2023-05-10T11:53:45;13.86;89.33
67748;HTU21D;54543;50.712;6.070;2023-05-10T11:56:11;13.98;89.81
67748;HTU21D;54543;50.712;6.070;2023-05-10T11:58:38;14.03;89.02
67748;HTU21D;54543;50.712;6.070;2023-05-10T12:01:05;14.03;89.26
67748;HTU21D;54543;50.712;6.070;2023-05-10T12:03:31;14.07;90.12
67748;HTU21D;54543;50.712;6.070;2023-05-10T12:05:58;14.19;90.83
67748;HTU21D;54543;50.712;6.070;2023-05-10T12:08:27;14.36;90.02
67748;HTU21D;54543;50.712;6.070;2023-05-10T12:11:03;14.50;89.72
67748;HTU21D;54543;50.712;6.070;2023-05-10T12:13:29;14.56;88.51
67748;HTU21D;54543;50.712;6.070;2023-05-10T12:15:57;14.48;88.28
67748;HTU21D;54543;50.712;6.070;2023-05-10T12:18:24;14.44;89.21
67748;HTU21D;54543;50.712;6.070;2023-05-10T12:20:53;14.43;88.66
67748;HTU21D;54543;50.712;6.070;2023-05-10T12:23:19;14.39;88.61
67748;HTU21D;54543;50.712;6.070;2023-05-10T12:25:45;14.36;88.00
67748;HTU21D;54543;50.712;6.070;2023-05-10T12:28:11;14.33;88.92
67748;HTU21D;54543;50.712;6.070;2023-05-10T12:30:37;14.40;88.18
67748;HTU21D;54543;50.712;6.070;2023-05-10T12:33:11;14.42;87.65
67748;HTU21D;54543;50.712;6.070;2023-05-10T12:35:48;14.58;88.28
67748;HTU21D;54543;50.712;6.070;2023-05-10T12:38:34;14.79;86.86
67748;HTU21D;54543;50.712;6.070;2023-05-10T12:41:05;14.94;86.38
67748;HTU21D;54543;50.712;6.070;2023-05-10T12:43:31;15.17;88.09
67748;HTU21D;54543;50.712;6.070;2023-05-10T12:45:57;15.53;86.63
67748;HTU21D;54543;50.712;6.070;2023-05-10T12:48:24;15.67;86.09
67748;HTU21D;54543;50.712;6.070;2023-05-10T12:50:49;15.76;85.79
67748;HTU21D;54543;50.712;6.070;2023-05-10T12:53:17;15.76;84.78
67748;HTU21D;54543;50.712;6.070;2023-05-10T12:55:43;15.74;85.07
67748;HTU21D;54543;50.712;6.070;2023-05-10T12:58:09;15.67;84.13
67748;HTU21D;54543;50.712;6.070;2023-05-10T13:00:37;15.44;83.81
67748;HTU21D;54543;50.712;6.070;2023-05-10T13:03:04;15.24;84.67
67748;HTU21D;54543;50.712;6.070;2023-05-10T13:05:32;15.12;84.06
67748;HTU21D;54543;50.712;6.070;2023-05-10T13:07:59;15.12;85.32
67748;HTU21D;54543;50.712;6.070;2023-05-10T13:10:24;15.07;84.70
67748;HTU21D;54543;50.712;6.070;2023-05-10T13:12:52;15.07;84.45
67748;HTU21D;54543;50.712;6.070;2023-05-10T13:15:18;15.06;84.98
67748;HTU21D;54543;50.712;6.070;2023-05-10T13:17:44;15.07;85.91
67748;HTU21D;54543;50.712;6.070;2023-05-10T13:20:10;15.09;85.61
67748;HTU21D;54543;50.712;6.070;2023-05-10T13:22:36;15.12;86.45
67748;HTU21D;54543;50.712;6.070;2023-05-10T13:25:04;15.09;84.97
67748;HTU21D;54543;50.712;6.070;2023-05-10T13:27:33;15.00;85.36
67748;HTU21D;54543;50.712;6.070;2023-05-10T13:29:59;14.96;86.65
67748;HTU21D;54543;50.712;6.070;2023-05-10T13:32:28;14.93;87.38
67748;HTU21D;54543;50.712;6.070;2023-05-10T13:35:12;14.94;86.67
67748;HTU21D;54543;50.712;6.070;2023-05-10T13:37:39;14.99;87.86
67748;HTU21D;54543;50.712;6.070;2023-05-10T13:40:10;15.03;87.77
67748;HTU21D;54543;50.712;6.070;2023-05-10T13:42:36;15.10;88.08
67748;HTU21D;54543;50.712;6.070;2023-05-10T13:45:06;15.17;88.30
67748;HTU21D;54543;50.712;6.070;2023-05-10T13:47:31;15.25;87.80
67748;HTU21D;54543;50.712;6.070;2023-05-10T13:49:57;15.21;86.37
67748;HTU21D;54543;50.712;6.070;2023-05-10T13:52:24;15.24;87.08
67748;HTU21D;54543;50.712;6.070;2023-05-10T13:54:50;15.27;85.60
67748;HTU21D;54543;50.712;6.070;2023-05-10T13:57:18;15.23;86.70
67748;HTU21D;54543;50.712;6.070;2023-05-10T13:59:44;15.19;86.27
67748;HTU21D;54543;50.712;6.070;2023-05-10T14:02:10;15.13;85.39
67748;HTU21D;54543;50.712;6.070;2023-05-10T14:04:38;15.01;84.87
67748;HTU21D;54543;50.712;6.070;2023-05-10T14:07:05;14.81;85.35
67748;HTU21D;54543;50.712;6.070;2023-05-10T14:09:31;14.67;85.69
67748;HTU21D;54543;50.712;6.070;2023-05-10T14:11:56;14.55;85.76
67748;HTU21D;54543;50.712;6.070;2023-05-10T14:14:22;14.48;86.38
67748;HTU21D;54543;50.712;6.070;2023-05-10T14:16:48;14.42;84.80
67748;HTU21D;54543;50.712;6.070;2023-05-10T14:19:13;14.42;86.05
67748;HTU21D;54543;50.712;6.070;2023-05-10T14:21:39;14.41;86.38
67748;HTU21D;54543;50.712;6.070;2023-05-10T14:24:05;14.41;86.00
67748;HTU21D;54543;50.712;6.070;2023-05-10T14:26:33;14.43;86.82
67748;HTU21D;54543;50.712;6.070;2023-05-10T14:29:01;14.43;86.82
67748;HTU21D;54543;50.712;6.070;2023-05-10T14:31:26;14.44;87.70
67748;HTU21D;54543;50.712;6.070;2023-05-10T14:33:52;14.43;86.22
67748;HTU21D;54543;50.712;6.070;2023-05-10T14:36:18;14.38;85.99
67748;HTU21D;54543;50.712;6.070;2023-05-10T14:38:45;14.38;86.71
67748;HTU21D;54543;50.712;6.070;2023-05-10T14:41:10;14.39;87.52
67748;HTU21D;54543;50.712;6.070;2023-05-10T14:43:39;14.38;87.61
67748;HTU21D;54543;50.712;6.070;2023-05-10T14:46:06;14.39;87.54
67748;HTU21D;54543;50.712;6.070;2023-05-10T14:48:32;14.32;87.38
67748;HTU21D;54543;50.712;6.070;2023-05-10T14:50:57;14.25;87.84
67748;HTU21D;54543;50.712;6.070;2023-05-10T14:53:23;14.19;87.94
67748;HTU21D;54543;50.712;6.070;2023-05-10T14:55:48;14.18;88.92
67748;HTU21D;54543;50.712;6.070;2023-05-10T14:58:14;14.23;89.10
67748;HTU21D;54543;50.712;6.070;2023-05-10T15:00:40;14.28;89.06
67748;HTU21D;54543;50.712;6.070;2023-05-10T15:03:06;14.35;88.89
67748;HTU21D;54543;50.712;6.070;2023-05-10T15:05:31;14.40;89.15
67748;HTU21D;54543;50.712;6.070;2023-05-10T15:07:57;14.40;88.00
67748;HTU21D;54543;50.712;6.070;2023-05-10T15:10:23;14.43;88.38
67748;HTU21D;54543;50.712;6.070;2023-05-10T15:12:50;14.54;88.49
67748;HTU21D;54543;50.712;6.070;2023-05-10T15:15:15;14.68;88.33
67748;HTU21D;54543;50.712;6.070;2023-05-10T15:17:41;14.78;85.53
67748;HTU21D;54543;50.712;6.070;2023-05-10T15:20:07;14.92;88.12
67748;HTU21D;54543;50.712;6.070;2023-05-10T15:22:33;15.08;87.61
67748;HTU21D;54543;50.712;6.070;2023-05-10T15:24:58;15.18;84.46
67748;HTU21D;54543;50.712;6.070;2023-05-10T15:27:25;15.28;86.51
67748;HTU21D;54543;50.712;6.070;2023-05-10T15:29:53;15.62;89.26
67748;HTU21D;54543;50.712;6.070;2023-05-10T15:32:18;16.18;90.12
67748;HTU21D;54543;50.712;6.070;2023-05-10T15:34:44;16.56;83.42
67748;HTU21D;54543;50.712;6.070;2023-05-10T15:37:13;16.67;85.26
67748;HTU21D;54543;50.712;6.070;2023-05-10T15:39:40;16.73;85.76
67748;HTU21D;54543;50.712;6.070;2023-05-10T15:42:07;16.80;85.38